createdAt,value
2022-08-09T00:00:20.859Z,14.936218
2022-08-09T00:04:01.048Z,15.026855
2022-08-09T00:07:11.386Z,15.026855
2022-08-09T00:10:36.661Z,15.107422
2022-08-09T00:14:01.928Z,15.157776
2022-08-09T00:18:04.927Z,15.198059
2022-08-09T00:20:52.452Z,15.198059
2022-08-09T00:24:17.689Z,15.157776
2022-08-09T00:27:43.419Z,15.187988
2022-08-09T00:31:09.487Z,15.198059
2022-08-09T00:34:33.535Z,15.067139
2022-08-09T00:37:58.643Z,14.906006
2022-08-09T00:44:09.598Z,14.775085
2022-08-09T00:44:49.113Z,14.795227
2022-08-09T00:48:15.382Z,14.765015
2022-08-09T00:51:42.786Z,14.775085
2022-08-09T00:55:04.854Z,14.765015
2022-08-09T00:58:30.467Z,14.765015
2022-08-09T01:01:55.447Z,14.754944
2022-08-09T01:05:21.938Z,14.765015
2022-08-09T01:08:48.944Z,14.734802
2022-08-09T01:12:12.692Z,14.724731
2022-08-09T01:15:37.147Z,14.644165
2022-08-09T01:19:04.595Z,14.644165
2022-08-09T01:22:27.022Z,14.644165
2022-08-09T01:25:52.164Z,14.654236
2022-08-09T01:29:17.422Z,14.654236
2022-08-09T01:32:44.069Z,14.644165
2022-08-09T01:36:07.947Z,14.644165
2022-08-09T01:39:33.216Z,14.58374
2022-08-09T01:42:58.426Z,14.573669
2022-08-09T01:46:24.048Z,14.58374
2022-08-09T01:49:50.933Z,14.624023
2022-08-09T01:53:19.736Z,14.58374
2022-08-09T01:56:39.399Z,14.523315
2022-08-09T02:00:08.860Z,14.472961
2022-08-09T02:03:29.869Z,14.462891
2022-08-09T02:06:58.532Z,14.503174
2022-08-09T02:10:20.354Z,14.513245
2022-08-09T02:13:55.210Z,14.503174
2022-08-09T02:17:15.586Z,14.352112
2022-08-09T02:20:36.096Z,14.170837
2022-08-09T02:24:01.923Z,14.060059
2022-08-09T02:27:27.401Z,14.070129
2022-08-09T02:30:51.919Z,14.120483
2022-08-09T02:34:25.659Z,14.170837
2022-08-09T02:37:42.649Z,14.20105
2022-08-09T02:41:07.634Z,14.170837
2022-08-09T02:44:32.863Z,14.170837
2022-08-09T02:47:59.506Z,14.211121
2022-08-09T02:51:24.212Z,14.221191
2022-08-09T02:54:51.393Z,14.070129
2022-08-09T02:58:32.196Z,13.94928
2022-08-09T03:01:42.933Z,13.878784
2022-08-09T03:05:04.273Z,13.908997
2022-08-09T03:08:29.503Z,13.969421
2022-08-09T03:12:05.002Z,14.019775
2022-08-09T03:15:20.031Z,14.019775
2022-08-09T03:18:45.265Z,13.969421
2022-08-09T03:22:11.749Z,13.919067
2022-08-09T03:25:57.185Z,13.908997
2022-08-09T03:29:00.996Z,13.969421
2022-08-09T03:32:26.303Z,13.959351
2022-08-09T03:36:14.256Z,13.94928
2022-08-09T03:39:16.775Z,13.919067
2022-08-09T03:42:42.849Z,13.919067
2022-08-09T03:46:20.433Z,13.919067
2022-08-09T03:49:32.952Z,13.959351
2022-08-09T03:52:57.716Z,13.919067
2022-08-09T03:56:22.960Z,13.908997
2022-08-09T03:59:53.122Z,13.888855
2022-08-09T04:03:19.556Z,13.878784
2022-08-09T04:06:38.679Z,13.878784
2022-08-09T04:10:03.923Z,13.908997
2022-08-09T04:13:44.813Z,13.94928
2022-08-09T04:16:54.453Z,13.919067
2022-08-09T04:20:19.684Z,13.919067
2022-08-09T04:23:54.600Z,13.989563
2022-08-09T04:27:10.137Z,14.070129
2022-08-09T04:30:35.361Z,14.150696
2022-08-09T04:34:00.613Z,14.221191
2022-08-09T04:37:42.269Z,14.352112
2022-08-09T04:40:54.297Z,14.362183
2022-08-09T04:44:16.337Z,14.422607
2022-08-09T04:47:45.282Z,14.523315
2022-08-09T04:51:06.840Z,14.58374
2022-08-09T04:54:32.087Z,14.654236
2022-08-09T04:57:58.360Z,14.825439
2022-08-09T05:01:22.538Z,15.026855
2022-08-09T05:04:47.802Z,15.268555
2022-08-09T05:08:13.904Z,15.4599
2022-08-09T05:11:38.262Z,15.560608
2022-08-09T05:15:11.289Z,15.651245
2022-08-09T05:18:40.065Z,15.762024
2022-08-09T05:21:55.346Z,15.872803
2022-08-09T05:25:19.252Z,15.973511
2022-08-09T05:28:44.586Z,16.09436
2022-08-09T05:32:09.840Z,16.154785
2022-08-09T05:35:38.866Z,16.295776
2022-08-09T05:39:00.375Z,16.446838
2022-08-09T05:42:27.920Z,16.658325
2022-08-09T05:45:52.881Z,16.819458
2022-08-09T05:49:34.045Z,16.910095
2022-08-09T05:52:41.720Z,17.041016
2022-08-09T05:56:06.615Z,17.312927
2022-08-09T05:59:31.890Z,17.59491
2022-08-09T06:02:57.373Z,17.836609
2022-08-09T06:06:22.395Z,18.209229
2022-08-09T06:09:55.259Z,18.511353
2022-08-09T06:13:18.566Z,18.722839
2022-08-09T06:16:38.162Z,18.803406
2022-08-09T06:20:03.408Z,18.873901
2022-08-09T06:23:56.051Z,18.924255
2022-08-09T06:26:53.886Z,19.024963
2022-08-09T06:30:19.134Z,19.176025
2022-08-09T06:33:48.624Z,19.367371
2022-08-09T06:37:10.107Z,19.468079
2022-08-09T06:40:34.968Z,19.578857
2022-08-09T06:44:00.150Z,19.619141
2022-08-09T06:47:25.406Z,19.679565
2022-08-09T06:50:50.635Z,19.689636
2022-08-09T06:54:15.884Z,19.729919
2022-08-09T06:57:42.791Z,19.729919
2022-08-09T07:01:06.360Z,19.709778
2022-08-09T07:04:31.647Z,19.73999
2022-08-09T07:07:59.167Z,19.760132
2022-08-09T07:11:23.667Z,19.709778
2022-08-09T07:14:50.946Z,19.760132
2022-08-09T07:18:14.138Z,19.760132
2022-08-09T07:21:37.968Z,19.770203
2022-08-09T07:25:05.241Z,19.830627
2022-08-09T07:28:28.610Z,19.911194
2022-08-09T07:31:53.862Z,19.99176
2022-08-09T07:35:19.331Z,20.062256
2022-08-09T07:38:50.170Z,20.132751
2022-08-09T07:42:09.707Z,20.283813
2022-08-09T07:45:37.175Z,20.36438
2022-08-09T07:49:00.487Z,20.414734
2022-08-09T07:52:25.587Z,20.505371
2022-08-09T07:56:03.086Z,20.606079
2022-08-09T07:59:25.057Z,20.696716
2022-08-09T08:02:42.194Z,20.787354
2022-08-09T08:06:06.768Z,20.817566
2022-08-09T08:09:35.308Z,20.86792
2022-08-09T08:12:57.374Z,20.938416
2022-08-09T08:16:29.423Z,20.968628
2022-08-09T08:19:47.967Z,20.968628
2022-08-09T08:23:16.577Z,20.98877
2022-08-09T08:26:42.296Z,21.089478
2022-08-09T08:30:04.474Z,21.129761
2022-08-09T08:33:40.909Z,21.170044
2022-08-09T08:36:54.484Z,21.24054
2022-08-09T08:40:19.791Z,21.24054
2022-08-09T08:43:45.109Z,21.280823
2022-08-09T08:47:12.673Z,21.311035
2022-08-09T08:50:35.715Z,21.321106
2022-08-09T08:54:02.826Z,21.341248
2022-08-09T08:57:26.317Z,21.341248
2022-08-09T09:00:54.495Z,21.401672
2022-08-09T09:04:16.947Z,21.431885
2022-08-09T09:07:42.828Z,21.522522
2022-08-09T09:11:07.541Z,21.542664
2022-08-09T09:14:32.866Z,21.582947
2022-08-09T09:17:58.181Z,21.62323
2022-08-09T09:21:25.173Z,21.62323
2022-08-09T09:24:49.197Z,21.75415
2022-08-09T09:28:14.571Z,21.875
2022-08-09T09:32:02.042Z,21.74408
2022-08-09T09:35:07.737Z,21.613159
2022-08-09T09:38:36.484Z,21.653442
2022-08-09T09:41:56.675Z,21.824646
2022-08-09T09:45:26.022Z,21.864929
2022-08-09T09:48:47.552Z,21.975708
2022-08-09T09:52:16.823Z,22.177124
2022-08-09T09:55:38.316Z,22.469177
2022-08-09T09:59:03.679Z,22.75116
2022-08-09T10:02:29.036Z,22.791443
2022-08-09T10:06:01.597Z,22.821655
2022-08-09T10:09:21.987Z,22.700806
2022-08-09T10:12:49.670Z,22.519531
2022-08-09T10:16:56.341Z,22.620239
2022-08-09T10:19:35.773Z,22.88208
2022-08-09T10:23:01.197Z,23.053284
2022-08-09T10:26:26.760Z,23.204346
2022-08-09T10:30:16.480Z,23.325195
2022-08-09T10:33:29.456Z,23.50647
2022-08-09T10:36:56.481Z,23.627319
2022-08-09T10:40:33.648Z,23.546753
2022-08-09T10:43:50.752Z,23.677673
2022-08-09T10:47:20.705Z,23.798523
2022-08-09T10:50:37.857Z,23.929443
2022-08-09T10:54:05.776Z,23.929443
2022-08-09T10:57:31.364Z,23.929443
2022-08-09T11:01:11.474Z,23.899231
2022-08-09T11:04:30.032Z,23.909302
2022-08-09T11:07:54.105Z,23.879089
2022-08-09T11:11:13.432Z,23.838806
2022-08-09T11:14:38.803Z,23.939514
2022-08-09T11:18:04.234Z,23.728027
2022-08-09T11:21:29.564Z,23.748169
2022-08-09T11:24:54.927Z,23.717957
2022-08-09T11:28:27.973Z,23.75824
2022-08-09T11:31:50.005Z,23.848877
2022-08-09T11:35:12.304Z,23.979797
2022-08-09T11:38:41.286Z,23.969727
2022-08-09T11:42:01.866Z,24.030151
2022-08-09T11:45:38.092Z,24.130859
2022-08-09T11:48:52.536Z,24.241638
2022-08-09T11:52:49.876Z,24.241638
2022-08-09T11:55:52.943Z,23.929443
2022-08-09T11:59:08.678Z,23.929443
2022-08-09T12:02:37.480Z,23.798523
2022-08-09T12:05:59.379Z,23.788452
2022-08-09T12:09:24.783Z,23.879089
2022-08-09T12:12:52.864Z,23.969727
2022-08-09T12:16:30.292Z,23.979797
2022-08-09T12:19:40.878Z,23.879089
2022-08-09T12:23:06.278Z,23.75824
2022-08-09T12:26:31.647Z,23.75824
2022-08-09T12:29:59.944Z,23.597107
2022-08-09T12:33:22.370Z,23.425903
2022-08-09T12:36:47.732Z,23.466187
2022-08-09T12:40:13.058Z,23.50647
2022-08-09T12:44:04.473Z,23.536682
2022-08-09T12:47:04.883Z,23.657532
2022-08-09T12:50:29.033Z,23.717957
2022-08-09T12:53:55.107Z,23.657532
2022-08-09T12:57:19.786Z,23.728027
2022-08-09T13:00:46.133Z,23.848877
2022-08-09T13:04:12.163Z,24.100647
2022-08-09T13:07:50.515Z,24.201355
2022-08-09T13:11:01.650Z,24.251709
2022-08-09T13:14:38.525Z,24.271851
2022-08-09T13:18:03.015Z,24.241638
2022-08-09T13:22:34.471Z,24.211426
2022-08-09T13:24:53.898Z,24.181213
2022-08-09T13:28:08.517Z,24.251709
2022-08-09T13:32:12.716Z,24.322205
2022-08-09T13:34:59.279Z,24.342346
2022-08-09T13:38:33.147Z,24.422913
2022-08-09T13:41:57.007Z,24.473267
2022-08-09T13:45:15.390Z,24.342346
2022-08-09T13:48:42.242Z,24.161072
2022-08-09T13:52:09.134Z,24.050293
2022-08-09T13:55:31.680Z,24.181213
2022-08-09T13:58:58.167Z,24.221497
2022-08-09T14:02:25.660Z,24.221497
2022-08-09T14:05:57.525Z,24.181213
2022-08-09T14:09:14.289Z,24.211426
2022-08-09T14:12:39.815Z,24.201355
2022-08-09T14:16:07.487Z,24.221497
2022-08-09T14:19:33.390Z,24.151001
2022-08-09T14:22:56.003Z,24.181213
2022-08-09T14:26:22.531Z,24.100647
2022-08-09T15:04:12.690Z,23.869019
2022-08-09T15:07:38.022Z,23.717957
2022-08-09T15:11:05.119Z,23.778381
2022-08-09T15:14:33.798Z,23.848877
2022-08-09T15:17:54.018Z,23.929443
2022-08-09T15:21:54.473Z,23.979797
2022-08-09T15:24:44.681Z,24.050293
2022-08-09T15:28:20.102Z,24.020081
2022-08-09T15:31:41.091Z,23.999939
2022-08-09T15:35:00.807Z,23.848877
2022-08-09T15:38:25.876Z,23.687744
2022-08-09T15:41:51.204Z,23.526611
2022-08-09T15:45:16.528Z,23.456116
2022-08-09T15:48:41.815Z,23.395691
2022-08-09T15:52:07.124Z,23.355408
2022-08-09T15:55:34.429Z,23.2547
2022-08-09T15:58:57.743Z,23.224487
2022-08-09T16:02:23.229Z,23.274841
2022-08-09T16:05:54.040Z,23.315125
2022-08-09T16:09:14.197Z,23.375549
2022-08-09T16:12:41.411Z,23.415833
2022-08-09T16:16:11.886Z,23.496399
2022-08-09T16:19:30.498Z,23.50647
2022-08-09T16:22:55.821Z,23.50647
2022-08-09T16:26:33.451Z,23.476257
2022-08-09T16:29:50.133Z,23.456116
2022-08-09T16:33:15.667Z,23.415833
2022-08-09T16:36:37.924Z,23.395691
2022-08-09T16:40:05.092Z,23.355408
2022-08-09T16:43:28.568Z,23.355408
2022-08-09T16:46:54.816Z,23.345337
2022-08-09T16:50:28.663Z,23.284912
2022-08-09T16:54:02.769Z,23.284912
2022-08-09T16:57:10.559Z,23.2547
2022-08-09T17:00:35.217Z,23.204346
2022-08-09T17:04:00.493Z,23.174133
2022-08-09T17:08:42.416Z,23.153992
2022-08-09T17:10:51.821Z,23.073425
2022-08-09T17:14:26.807Z,23.023071
2022-08-09T17:17:50.869Z,23.013
2022-08-09T17:21:07.097Z,22.982788
2022-08-09T17:24:32.423Z,22.922363
2022-08-09T17:27:57.733Z,22.902222
2022-08-09T17:31:23.057Z,22.861938
2022-08-09T17:35:01.833Z,22.831726
2022-08-09T17:38:25.343Z,22.76123
2022-08-09T17:41:39.330Z,22.75116
2022-08-09T17:45:06.289Z,22.700806
2022-08-09T17:48:29.755Z,22.640381
2022-08-09T17:51:55.103Z,22.579956
2022-08-09T17:55:20.448Z,22.569885
2022-08-09T17:58:45.777Z,22.519531
2022-08-09T18:02:18.748Z,22.489319
2022-08-09T18:05:38.739Z,22.449036
2022-08-09T18:09:01.742Z,22.388611
2022-08-09T18:12:30.040Z,22.308044
2022-08-09T18:16:05.326Z,22.237549
2022-08-09T18:20:53.456Z,22.167053
2022-08-09T18:22:44.100Z,22.066345
2022-08-09T18:26:09.051Z,22.015991
2022-08-09T18:30:37.102Z,21.955566
2022-08-09T18:33:02.781Z,21.864929
2022-08-09T18:36:32.315Z,21.794434
2022-08-09T18:39:53.508Z,21.713867
2022-08-09T18:43:18.718Z,21.643372
2022-08-09T18:46:45.736Z,21.562805
2022-08-09T18:50:10.122Z,21.49231
2022-08-09T18:53:36.812Z,21.381531
2022-08-09T18:57:05.659Z,21.25061
2022-08-09T19:00:25.734Z,21.159973
2022-08-09T19:03:54.807Z,21.129761
2022-08-09T19:07:16.737Z,21.039124
2022-08-09T19:10:42.255Z,20.938416
2022-08-09T19:14:07.716Z,20.86792
2022-08-09T19:17:39.685Z,20.716858
2022-08-09T19:20:58.792Z,20.636292
2022-08-09T19:24:31.426Z,20.575867
2022-08-09T19:27:50.940Z,20.545654
2022-08-09T19:31:16.690Z,20.535583
2022-08-09T19:34:43.699Z,20.4953
2022-08-09T19:38:07.362Z,20.465088
2022-08-09T19:41:35.776Z,20.424805
2022-08-09T19:44:58.623Z,20.394592
2022-08-09T19:49:01.311Z,20.394592
2022-08-09T19:51:55.128Z,20.354309
2022-08-09T19:55:16.169Z,20.283813
2022-08-09T19:58:41.619Z,20.24353
2022-08-09T20:02:15.698Z,20.24353
2022-08-09T20:05:32.713Z,20.132751
2022-08-09T20:08:59.442Z,20.082397
2022-08-09T20:12:27.317Z,20.052185
2022-08-09T20:16:32.344Z,20.021973
2022-08-09T20:19:43.353Z,19.981689
2022-08-09T20:22:42.832Z,19.911194
2022-08-09T20:26:04.404Z,19.86084
2022-08-09T20:29:33.081Z,19.800415
2022-08-09T20:32:55.032Z,19.73999
2022-08-09T20:36:20.444Z,19.679565
2022-08-09T20:40:14.387Z,19.659424
2022-08-09T20:43:12.398Z,19.629211
2022-08-09T20:46:42.624Z,19.649353
2022-08-09T20:50:01.595Z,19.578857
2022-08-09T20:53:36.129Z,19.538574
2022-08-09T20:56:53.770Z,19.437866
2022-08-09T21:00:19.750Z,19.317017
2022-08-09T21:04:07.750Z,19.216309
2022-08-09T21:07:12.712Z,19.176025
2022-08-09T21:10:33.584Z,19.125671
2022-08-09T21:13:59.390Z,19.095459
2022-08-09T21:18:12.310Z,19.10553
2022-08-09T21:20:50.314Z,19.155884
2022-08-09T21:24:14.938Z,19.206238
2022-08-09T21:28:01.125Z,19.216309
2022-08-09T21:31:16.923Z,19.246521
2022-08-09T21:34:30.971Z,19.256592
2022-08-09T21:37:58.968Z,19.286804
2022-08-09T21:41:21.640Z,19.246521
2022-08-09T21:44:46.971Z,19.176025
2022-08-09T21:48:12.283Z,19.206238
2022-08-09T21:51:43.681Z,19.155884
2022-08-09T21:55:04.623Z,19.10553
2022-08-09T21:58:29.078Z,19.065247
2022-08-09T22:01:59.505Z,19.065247
2022-08-09T22:05:22.372Z,19.035034
2022-08-09T22:08:44.277Z,18.904114
2022-08-09T22:12:18.252Z,18.722839
2022-08-09T22:15:37.023Z,18.622131
2022-08-09T22:19:00.217Z,18.471069
2022-08-09T22:22:25.519Z,18.360291
2022-08-09T22:26:05.234Z,18.370361
2022-08-09T22:29:16.212Z,18.420715
2022-08-09T22:32:41.551Z,18.48114
2022-08-09T22:36:06.945Z,18.521423
2022-08-09T22:39:47.426Z,18.511353
2022-08-09T22:42:57.676Z,18.48114
2022-08-09T22:48:07.019Z,18.501282
2022-08-09T22:49:48.322Z,18.501282
2022-08-09T22:53:13.636Z,18.420715
2022-08-09T22:56:41.396Z,18.360291
2022-08-09T23:00:04.390Z,18.330078
2022-08-09T23:03:31.084Z,18.360291
2022-08-09T23:06:55.234Z,18.360291
2022-08-09T23:10:20.568Z,18.370361
2022-08-09T23:13:45.987Z,18.35022
2022-08-09T23:17:11.332Z,18.330078
2022-08-09T23:20:36.624Z,18.209229
2022-08-09T23:24:05.846Z,18.108521
2022-08-09T23:27:27.424Z,17.927246
2022-08-09T23:30:52.854Z,17.776184
2022-08-09T23:34:18.203Z,17.615051
2022-08-09T23:37:43.599Z,17.544556
2022-08-09T23:41:09.045Z,17.524414
2022-08-09T23:44:34.469Z,17.554626
2022-08-09T23:47:59.839Z,17.615051
2022-08-09T23:51:25.169Z,17.715759
2022-08-09T23:54:50.521Z,17.836609
2022-08-09T23:58:25.642Z,17.897034
